sensor_id;sensor_type;location;lat;lon;timestamp;temperature;humidity
29713;DHT22;16623;53.632;10.016;2022-11-20T09:26:48;2.90;99.90
29713;DHT22;16623;53.632;10.016;2022-11-20T09:29:14;3.00;99.90
29713;DHT22;16623;53.632;10.016;2022-11-20T09:31:39;3.00;99.90
29713;DHT22;16623;53.632;10.016;2022-11-20T09:34:05;3.10;99.90
29713;DHT22;16623;53.632;10.016;2022-11-20T09:36:32;3.20;99.90
29713;DHT22;16623;53.632;10.016;2022-11-20T09:38:58;3.10;99.90
29713;DHT22;16623;53.632;10.016;2022-11-20T09:44:19;3.20;99.90
29713;DHT22;16623;53.632;10.016;2022-11-20T09:46:49;3.30;99.90
29713;DHT22;16623;53.632;10.016;2022-11-20T09:52:51;3.40;99.90
29713;DHT22;16623;53.632;10.016;2022-11-20T09:55:20;3.40;99.90
29713;DHT22;16623;53.632;10.016;2022-11-20T09:57:48;3.40;99.90
29713;DHT22;16623;53.632;10.016;2022-11-20T10:00:16;3.40;99.90
29713;DHT22;16623;53.632;10.016;2022-11-20T10:03:03;3.40;99.90
29713;DHT22;16623;53.632;10.016;2022-11-20T10:05:45;3.50;99.90
29713;DHT22;16623;53.632;10.016;2022-11-20T10:08:29;3.60;99.90
29713;DHT22;16623;53.632;10.016;2022-11-20T10:19:55;3.50;99.90
29713;DHT22;16623;53.632;10.016;2022-11-20T10:25:16;3.40;99.90
29713;DHT22;16623;53.632;10.016;2022-11-20T10:30:41;3.10;99.90
29713;DHT22;16623;53.632;10.016;2022-11-20T10:33:24;3.10;99.90
29713;DHT22;16623;53.632;10.016;2022-11-20T10:36:00;3.20;99.90
29713;DHT22;16623;53.632;10.016;2022-11-20T10:41:20;3.20;99.90
29713;DHT22;16623;53.632;10.016;2022-11-20T10:44:14;3.40;99.90
29713;DHT22;16623;53.632;10.016;2022-11-20T10:46:47;3.50;99.90
29713;DHT22;16623;53.632;10.016;2022-11-20T10:49:18;3.10;99.90
29713;DHT22;16623;53.632;10.016;2022-11-20T10:57:23;3.40;99.90
29713;DHT22;16623;53.632;10.016;2022-11-20T11:08:05;3.70;99.90
29713;DHT22;16623;53.632;10.016;2022-11-20T11:13:22;3.50;99.90
29713;DHT22;16623;53.632;10.016;2022-11-20T11:15:48;3.30;99.90
29713;DHT22;16623;53.632;10.016;2022-11-20T11:18:27;3.10;99.90
29713;DHT22;16623;53.632;10.016;2022-11-20T11:20:54;3.20;99.90
29713;DHT22;16623;53.632;10.016;2022-11-20T11:23:33;3.40;99.90
29713;DHT22;16623;53.632;10.016;2022-11-20T11:26:01;3.40;99.90
29713;DHT22;16623;53.632;10.016;2022-11-20T11:28:27;3.40;99.90
29713;DHT22;16623;53.632;10.016;2022-11-20T11:30:54;3.40;99.90
29713;DHT22;16623;53.632;10.016;2022-11-20T11:33:23;3.50;99.90
29713;DHT22;16623;53.632;10.016;2022-11-20T11:38:45;3.50;99.90
29713;DHT22;16623;53.632;10.016;2022-11-20T11:41:22;3.50;99.90
29713;DHT22;16623;53.632;10.016;2022-11-20T11:43:53;3.60;99.90
29713;DHT22;16623;53.632;10.016;2022-11-20T11:46:39;3.70;99.90
29713;DHT22;16623;53.632;10.016;2022-11-20T11:49:16;3.50;99.90
29713;DHT22;16623;53.632;10.016;2022-11-20T11:52:03;3.60;99.90
29713;DHT22;16623;53.632;10.016;2022-11-20T11:54:55;3.80;99.90
29713;DHT22;16623;53.632;10.016;2022-11-20T12:03:02;3.70;99.90
29713;DHT22;16623;53.632;10.016;2022-11-20T12:05:42;3.70;99.90
29713;DHT22;16623;53.632;10.016;2022-11-20T12:08:28;3.60;99.90
29713;DHT22;16623;53.632;10.016;2022-11-20T12:11:04;3.50;99.90
29713;DHT22;16623;53.632;10.016;2022-11-20T12:14:20;3.40;99.90
29713;DHT22;16623;53.632;10.016;2022-11-20T12:16:36;3.50;99.90
29713;DHT22;16623;53.632;10.016;2022-11-20T12:19:08;3.60;99.90
29713;DHT22;16623;53.632;10.016;2022-11-20T12:21:51;3.60;99.90
29713;DHT22;16623;53.632;10.016;2022-11-20T12:24:37;3.80;99.90
29713;DHT22;16623;53.632;10.016;2022-11-20T12:35:02;3.80;99.90
29713;DHT22;16623;53.632;10.016;2022-11-20T12:40:27;4.00;99.90
29713;DHT22;16623;53.632;10.016;2022-11-20T12:43:11;4.10;99.90
29713;DHT22;16623;53.632;10.016;2022-11-20T12:51:58;4.20;99.90
29713;DHT22;16623;53.632;10.016;2022-11-20T13:00:21;4.20;99.90
29713;DHT22;16623;53.632;10.016;2022-11-20T13:08:24;4.00;99.90
29713;DHT22;16623;53.632;10.016;2022-11-20T13:14:04;3.90;99.90
29713;DHT22;16623;53.632;10.016;2022-11-20T13:19:40;4.00;99.90
29713;DHT22;16623;53.632;10.016;2022-11-20T13:22:09;3.90;99.90
29713;DHT22;16623;53.632;10.016;2022-11-20T13:24:35;3.90;99.90
29713;DHT22;16623;53.632;10.016;2022-11-20T13:27:03;3.90;99.90
29713;DHT22;16623;53.632;10.016;2022-11-20T13:29:29;3.80;99.90
29713;DHT22;16623;53.632;10.016;2022-11-20T13:32:19;3.80;99.90
29713;DHT22;16623;53.632;10.016;2022-11-20T13:34:54;3.90;99.90
29713;DHT22;16623;53.632;10.016;2022-11-20T13:37:33;4.00;99.90
29713;DHT22;16623;53.632;10.016;2022-11-20T13:42:46;4.00;99.90
29713;DHT22;16623;53.632;10.016;2022-11-20T13:45:27;4.00;99.90
29713;DHT22;16623;53.632;10.016;2022-11-20T13:47:54;4.00;99.90
29713;DHT22;16623;53.632;10.016;2022-11-20T13:50:44;4.00;99.90
29713;DHT22;16623;53.632;10.016;2022-11-20T13:56:18;4.00;99.90
29713;DHT22;16623;53.632;10.016;2022-11-20T13:58:58;4.10;99.90
29713;DHT22;16623;53.632;10.016;2022-11-20T14:01:28;4.10;99.90
29713;DHT22;16623;53.632;10.016;2022-11-20T14:03:56;4.10;99.90
29713;DHT22;16623;53.632;10.016;2022-11-20T14:06:32;4.00;99.90
29713;DHT22;16623;53.632;10.016;2022-11-20T14:08:59;4.00;99.90
29713;DHT22;16623;53.632;10.016;2022-11-20T14:11:27;4.00;99.90
29713;DHT22;16623;53.632;10.016;2022-11-20T14:13:57;4.00;99.90
29713;DHT22;16623;53.632;10.016;2022-11-20T14:16:24;3.90;99.90
29713;DHT22;16623;53.632;10.016;2022-11-20T14:18:50;3.90;99.90
29713;DHT22;16623;53.632;10.016;2022-11-20T14:21:28;3.80;99.90
29713;DHT22;16623;53.632;10.016;2022-11-20T14:24:10;3.80;99.90
29713;DHT22;16623;53.632;10.016;2022-11-20T14:26:38;3.70;99.90
29713;DHT22;16623;53.632;10.016;2022-11-20T14:29:22;3.70;99.90
29713;DHT22;16623;53.632;10.016;2022-11-20T14:31:52;3.70;99.90
29713;DHT22;16623;53.632;10.016;2022-11-20T14:34:25;3.70;99.90
29713;DHT22;16623;53.632;10.016;2022-11-20T14:36:59;3.70;99.90
29713;DHT22;16623;53.632;10.016;2022-11-20T14:39:34;3.70;99.90
29713;DHT22;16623;53.632;10.016;2022-11-20T14:42:01;3.90;99.90
29713;DHT22;16623;53.632;10.016;2022-11-20T14:44:30;3.80;99.90
29713;DHT22;16623;53.632;10.016;2022-11-20T14:46:59;3.80;99.90
29713;DHT22;16623;53.632;10.016;2022-11-20T14:49:26;3.70;99.90
29713;DHT22;16623;53.632;10.016;2022-11-20T14:52:16;3.60;99.90
29713;DHT22;16623;53.632;10.016;2022-11-20T14:54:53;3.60;99.90
29713;DHT22;16623;53.632;10.016;2022-11-20T15:02:45;3.60;99.90
29713;DHT22;16623;53.632;10.016;2022-11-20T15:05:12;3.60;99.90
29713;DHT22;16623;53.632;10.016;2022-11-20T15:07:40;3.60;99.90
29713;DHT22;16623;53.632;10.016;2022-11-20T15:12:45;3.70;99.90
29713;DHT22;16623;53.632;10.016;2022-11-20T15:15:12;3.80;99.90
29713;DHT22;16623;53.632;10.016;2022-11-20T15:17:40;3.70;99.90
29713;DHT22;16623;53.632;10.016;2022-11-20T15:20:13;3.80;99.90
29713;DHT22;16623;53.632;10.016;2022-11-20T15:22:39;3.80;99.90
29713;DHT22;16623;53.632;10.016;2022-11-20T15:25:15;3.80;99.90
29713;DHT22;16623;53.632;10.016;2022-11-20T15:27:42;3.80;99.90
29713;DHT22;16623;53.632;10.016;2022-11-20T15:30:14;3.80;99.90
29713;DHT22;16623;53.632;10.016;2022-11-20T15:32:40;3.70;99.90
29713;DHT22;16623;53.632;10.016;2022-11-20T15:35:06;3.70;99.90
29713;DHT22;16623;53.632;10.016;2022-11-20T15:37:32;3.70;99.90
29713;DHT22;16623;53.632;10.016;2022-11-20T15:39:57;3.70;99.90
29713;DHT22;16623;53.632;10.016;2022-11-20T15:42:23;3.70;99.90
29713;DHT22;16623;53.632;10.016;2022-11-20T15:44:49;3.70;99.90
29713;DHT22;16623;53.632;10.016;2022-11-20T15:47:15;3.70;99.90
29713;DHT22;16623;53.632;10.016;2022-11-20T15:49:43;3.70;99.90
29713;DHT22;16623;53.632;10.016;2022-11-20T15:52:15;3.70;99.90
29713;DHT22;16623;53.632;10.016;2022-11-20T15:54:41;3.70;99.90
29713;DHT22;16623;53.632;10.016;2022-11-20T15:57:07;3.70;99.90
29713;DHT22;16623;53.632;10.016;2022-11-20T15:59:32;3.70;99.90
29713;DHT22;16623;53.632;10.016;2022-11-20T16:01:58;3.60;99.90
29713;DHT22;16623;53.632;10.016;2022-11-20T16:04:24;3.50;99.90
29713;DHT22;16623;53.632;10.016;2022-11-20T16:06:50;3.50;99.90
29713;DHT22;16623;53.632;10.016;2022-11-20T16:09:15;3.50;99.90
29713;DHT22;16623;53.632;10.016;2022-11-20T16:11:41;3.50;99.90
29713;DHT22;16623;53.632;10.016;2022-11-20T16:14:10;3.50;99.90
29713;DHT22;16623;53.632;10.016;2022-11-20T16:16:54;3.40;99.90
29713;DHT22;16623;53.632;10.016;2022-11-20T16:19:20;3.40;99.90
29713;DHT22;16623;53.632;10.016;2022-11-20T16:21:45;3.30;99.90
29713;DHT22;16623;53.632;10.016;2022-11-20T16:24:12;3.20;99.90
29713;DHT22;16623;53.632;10.016;2022-11-20T16:26:39;3.10;99.90
29713;DHT22;16623;53.632;10.016;2022-11-20T16:29:05;3.10;99.90
29713;DHT22;16623;53.632;10.016;2022-11-20T16:31:32;3.10;99.90
29713;DHT22;16623;53.632;10.016;2022-11-20T16:34:00;3.10;99.90
29713;DHT22;16623;53.632;10.016;2022-11-20T16:36:27;3.20;99.90
29713;DHT22;16623;53.632;10.016;2022-11-20T16:39:00;3.30;99.90
29713;DHT22;16623;53.632;10.016;2022-11-20T16:41:29;3.40;99.90
29713;DHT22;16623;53.632;10.016;2022-11-20T16:43:56;3.50;99.90
29713;DHT22;16623;53.632;10.016;2022-11-20T16:46:27;3.50;99.90
29713;DHT22;16623;53.632;10.016;2022-11-20T16:48:55;3.50;99.90
29713;DHT22;16623;53.632;10.016;2022-11-20T16:51:22;3.50;99.90
29713;DHT22;16623;53.632;10.016;2022-11-20T16:53:48;3.50;99.90
29713;DHT22;16623;53.632;10.016;2022-11-20T16:56:17;3.30;99.90
29713;DHT22;16623;53.632;10.016;2022-11-20T16:58:48;3.10;99.90
29713;DHT22;16623;53.632;10.016;2022-11-20T17:01:19;3.00;99.90
29713;DHT22;16623;53.632;10.016;2022-11-20T17:03:46;3.00;99.90
29713;DHT22;16623;53.632;10.016;2022-11-20T17:06:19;2.90;99.90
29713;DHT22;16623;53.632;10.016;2022-11-20T17:08:46;2.90;99.90
29713;DHT22;16623;53.632;10.016;2022-11-20T17:11:15;2.90;99.90
29713;DHT22;16623;53.632;10.016;2022-11-20T17:13:42;3.00;99.90
29713;DHT22;16623;53.632;10.016;2022-11-20T17:16:10;3.00;99.90
29713;DHT22;16623;53.632;10.016;2022-11-20T17:18:36;3.00;99.90
29713;DHT22;16623;53.632;10.016;2022-11-20T17:21:02;2.90;99.90
29713;DHT22;16623;53.632;10.016;2022-11-20T17:23:33;2.80;99.90
29713;DHT22;16623;53.632;10.016;2022-11-20T17:26:10;2.90;99.90
29713;DHT22;16623;53.632;10.016;2022-11-20T17:28:39;2.70;99.90
29713;DHT22;16623;53.632;10.016;2022-11-20T17:31:10;2.70;99.90
29713;DHT22;16623;53.632;10.016;2022-11-20T17:33:37;2.70;99.90
29713;DHT22;16623;53.632;10.016;2022-11-20T17:36:04;2.70;99.90
29713;DHT22;16623;53.632;10.016;2022-11-20T17:38:29;2.70;99.90
29713;DHT22;16623;53.632;10.016;2022-11-20T17:41:10;2.70;99.90
29713;DHT22;16623;53.632;10.016;2022-11-20T17:43:36;2.80;99.90
29713;DHT22;16623;53.632;10.016;2022-11-20T17:46:14;2.90;99.90
29713;DHT22;16623;53.632;10.016;2022-11-20T17:48:41;2.90;99.90
29713;DHT22;16623;53.632;10.016;2022-11-20T17:51:09;3.00;99.90
29713;DHT22;16623;53.632;10.016;2022-11-20T17:53:38;3.00;99.90
29713;DHT22;16623;53.632;10.016;2022-11-20T17:56:04;3.00;99.90
29713;DHT22;16623;53.632;10.016;2022-11-20T17:58:49;3.10;99.90
29713;DHT22;16623;53.632;10.016;2022-11-20T18:01:16;3.10;99.90
29713;DHT22;16623;53.632;10.016;2022-11-20T18:03:42;3.10;99.90
29713;DHT22;16623;53.632;10.016;2022-11-20T18:08:41;3.00;99.90
29713;DHT22;16623;53.632;10.016;2022-11-20T18:11:18;3.10;99.90
29713;DHT22;16623;53.632;10.016;2022-11-20T18:13:46;3.10;99.90
29713;DHT22;16623;53.632;10.016;2022-11-20T18:16:33;3.10;99.90
29713;DHT22;16623;53.632;10.016;2022-11-20T18:19:00;3.00;99.90
29713;DHT22;16623;53.632;10.016;2022-11-20T18:21:28;3.10;99.90
29713;DHT22;16623;53.632;10.016;2022-11-20T18:23:54;3.10;99.90
29713;DHT22;16623;53.632;10.016;2022-11-20T18:26:20;3.20;99.90
29713;DHT22;16623;53.632;10.016;2022-11-20T18:28:46;3.10;99.90
29713;DHT22;16623;53.632;10.016;2022-11-20T18:31:12;3.20;99.90
29713;DHT22;16623;53.632;10.016;2022-11-20T18:33:38;3.30;99.90
29713;DHT22;16623;53.632;10.016;2022-11-20T18:36:11;3.20;99.90
29713;DHT22;16623;53.632;10.016;2022-11-20T18:38:40;3.30;99.90
29713;DHT22;16623;53.632;10.016;2022-11-20T18:41:09;3.30;99.90
29713;DHT22;16623;53.632;10.016;2022-11-20T18:43:56;3.30;99.90
29713;DHT22;16623;53.632;10.016;2022-11-20T18:46:40;3.30;99.90
29713;DHT22;16623;53.632;10.016;2022-11-20T18:49:07;3.30;99.90
29713;DHT22;16623;53.632;10.016;2022-11-20T18:51:33;3.20;99.90
29713;DHT22;16623;53.632;10.016;2022-11-20T18:53:58;3.30;99.90
29713;DHT22;16623;53.632;10.016;2022-11-20T18:56:24;3.30;99.90
29713;DHT22;16623;53.632;10.016;2022-11-20T18:58:50;3.30;99.90
29713;DHT22;16623;53.632;10.016;2022-11-20T19:01:15;3.20;99.90
29713;DHT22;16623;53.632;10.016;2022-11-20T19:03:41;3.20;99.90
29713;DHT22;16623;53.632;10.016;2022-11-20T19:06:17;3.20;99.90
29713;DHT22;16623;53.632;10.016;2022-11-20T19:08:42;3.20;99.90
29713;DHT22;16623;53.632;10.016;2022-11-20T19:11:09;3.20;99.90
29713;DHT22;16623;53.632;10.016;2022-11-20T19:13:36;3.10;99.90
29713;DHT22;16623;53.632;10.016;2022-11-20T19:18:28;3.10;99.90
29713;DHT22;16623;53.632;10.016;2022-11-20T19:20:53;3.10;99.90
29713;DHT22;16623;53.632;10.016;2022-11-20T19:23:19;3.10;99.90
29713;DHT22;16623;53.632;10.016;2022-11-20T19:25:46;3.10;99.90
29713;DHT22;16623;53.632;10.016;2022-11-20T19:28:12;3.10;99.90
29713;DHT22;16623;53.632;10.016;2022-11-20T19:30:37;3.10;99.90
29713;DHT22;16623;53.632;10.016;2022-11-20T19:33:05;3.10;99.90
29713;DHT22;16623;53.632;10.016;2022-11-20T19:35:31;3.10;99.90
29713;DHT22;16623;53.632;10.016;2022-11-20T19:37:56;3.00;99.90
29713;DHT22;16623;53.632;10.016;2022-11-20T19:40:22;3.10;99.90
29713;DHT22;16623;53.632;10.016;2022-11-20T19:42:48;3.10;99.90
29713;DHT22;16623;53.632;10.016;2022-11-20T19:45:13;3.00;99.90
29713;DHT22;16623;53.632;10.016;2022-11-20T19:47:39;3.00;99.90
29713;DHT22;16623;53.632;10.016;2022-11-20T19:50:05;3.00;99.90
29713;DHT22;16623;53.632;10.016;2022-11-20T19:52:30;2.90;99.90
29713;DHT22;16623;53.632;10.016;2022-11-20T19:54:56;3.00;99.90
29713;DHT22;16623;53.632;10.016;2022-11-20T19:57:21;2.90;99.90
29713;DHT22;16623;53.632;10.016;2022-11-20T19:59:47;2.90;99.90
29713;DHT22;16623;53.632;10.016;2022-11-20T20:02:12;2.80;99.90
29713;DHT22;16623;53.632;10.016;2022-11-20T20:04:38;2.90;99.90
29713;DHT22;16623;53.632;10.016;2022-11-20T20:07:03;2.90;99.90
29713;DHT22;16623;53.632;10.016;2022-11-20T20:09:30;3.00;99.90
29713;DHT22;16623;53.632;10.016;2022-11-20T20:11:58;2.90;99.90
29713;DHT22;16623;53.632;10.016;2022-11-20T20:14:24;2.90;99.90
29713;DHT22;16623;53.632;10.016;2022-11-20T20:16:49;2.90;99.90
29713;DHT22;16623;53.632;10.016;2022-11-20T20:19:15;2.90;99.90
29713;DHT22;16623;53.632;10.016;2022-11-20T20:21:41;2.90;99.90
29713;DHT22;16623;53.632;10.016;2022-11-20T20:24:08;2.80;99.90
29713;DHT22;16623;53.632;10.016;2022-11-20T20:26:33;2.80;99.90
29713;DHT22;16623;53.632;10.016;2022-11-20T20:29:00;2.80;99.90
29713;DHT22;16623;53.632;10.016;2022-11-20T20:31:28;2.70;99.90
29713;DHT22;16623;53.632;10.016;2022-11-20T20:33:54;2.70;99.90
29713;DHT22;16623;53.632;10.016;2022-11-20T20:36:21;2.60;99.90
29713;DHT22;16623;53.632;10.016;2022-11-20T20:38:53;2.60;99.90
29713;DHT22;16623;53.632;10.016;2022-11-20T20:41:20;2.60;99.90
29713;DHT22;16623;53.632;10.016;2022-11-20T20:43:46;2.60;99.90
29713;DHT22;16623;53.632;10.016;2022-11-20T20:46:30;2.60;99.90
29713;DHT22;16623;53.632;10.016;2022-11-20T20:48:56;2.60;99.90
29713;DHT22;16623;53.632;10.016;2022-11-20T20:51:22;2.60;99.90
29713;DHT22;16623;53.632;10.016;2022-11-20T20:53:47;2.60;99.90
29713;DHT22;16623;53.632;10.016;2022-11-20T20:56:14;2.50;99.90
29713;DHT22;16623;53.632;10.016;2022-11-20T20:58:40;2.50;99.90
29713;DHT22;16623;53.632;10.016;2022-11-20T21:01:14;2.40;99.90
29713;DHT22;16623;53.632;10.016;2022-11-20T21:03:40;2.40;99.90
29713;DHT22;16623;53.632;10.016;2022-11-20T21:06:07;2.40;99.90
29713;DHT22;16623;53.632;10.016;2022-11-20T21:08:34;2.20;99.90
29713;DHT22;16623;53.632;10.016;2022-11-20T21:11:08;2.10;99.90
29713;DHT22;16623;53.632;10.016;2022-11-20T21:13:35;2.10;99.90
29713;DHT22;16623;53.632;10.016;2022-11-20T21:16:01;2.10;99.90
29713;DHT22;16623;53.632;10.016;2022-11-20T21:18:27;2.00;99.90
29713;DHT22;16623;53.632;10.016;2022-11-20T21:20:53;2.10;99.90
29713;DHT22;16623;53.632;10.016;2022-11-20T21:23:38;2.00;99.90
29713;DHT22;16623;53.632;10.016;2022-11-20T21:26:06;1.90;99.90
29713;DHT22;16623;53.632;10.016;2022-11-20T21:28:33;1.90;99.90
29713;DHT22;16623;53.632;10.016;2022-11-20T21:31:25;1.80;99.90
29713;DHT22;16623;53.632;10.016;2022-11-20T21:33:52;1.80;99.90
29713;DHT22;16623;53.632;10.016;2022-11-20T21:36:28;1.70;99.90
29713;DHT22;16623;53.632;10.016;2022-11-20T21:38:55;1.60;99.90
29713;DHT22;16623;53.632;10.016;2022-11-20T21:41:23;1.60;99.90
29713;DHT22;16623;53.632;10.016;2022-11-20T21:43:50;1.50;99.90
29713;DHT22;16623;53.632;10.016;2022-11-20T21:46:16;1.60;99.90
29713;DHT22;16623;53.632;10.016;2022-11-20T21:48:44;1.60;99.90
29713;DHT22;16623;53.632;10.016;2022-11-20T21:51:15;1.60;99.90
29713;DHT22;16623;53.632;10.016;2022-11-20T21:53:42;1.60;99.90
29713;DHT22;16623;53.632;10.016;2022-11-20T21:56:09;1.60;99.90
29713;DHT22;16623;53.632;10.016;2022-11-20T21:58:35;1.50;99.90
29713;DHT22;16623;53.632;10.016;2022-11-20T22:01:16;1.50;99.90
29713;DHT22;16623;53.632;10.016;2022-11-20T22:03:42;1.50;99.90
29713;DHT22;16623;53.632;10.016;2022-11-20T22:06:09;1.60;99.90
29713;DHT22;16623;53.632;10.016;2022-11-20T22:08:36;1.60;99.90
29713;DHT22;16623;53.632;10.016;2022-11-20T22:11:07;1.50;99.90
29713;DHT22;16623;53.632;10.016;2022-11-20T22:13:33;1.40;99.90
29713;DHT22;16623;53.632;10.016;2022-11-20T22:16:18;1.40;99.90
29713;DHT22;16623;53.632;10.016;2022-11-20T22:18:48;1.40;99.90
29713;DHT22;16623;53.632;10.016;2022-11-20T22:21:16;1.30;99.90
29713;DHT22;16623;53.632;10.016;2022-11-20T22:23:42;1.20;99.90
29713;DHT22;16623;53.632;10.016;2022-11-20T22:26:13;1.10;99.90
29713;DHT22;16623;53.632;10.016;2022-11-20T22:28:39;1.00;99.90
29713;DHT22;16623;53.632;10.016;2022-11-20T22:31:09;0.80;99.90
29713;DHT22;16623;53.632;10.016;2022-11-20T22:33:36;0.60;99.90
29713;DHT22;16623;53.632;10.016;2022-11-20T22:36:14;0.60;99.90
29713;DHT22;16623;53.632;10.016;2022-11-20T22:38:40;0.60;99.90
29713;DHT22;16623;53.632;10.016;2022-11-20T22:41:14;0.60;99.90
29713;DHT22;16623;53.632;10.016;2022-11-20T22:43:40;0.70;99.90
29713;DHT22;16623;53.632;10.016;2022-11-20T22:46:11;0.80;99.90
29713;DHT22;16623;53.632;10.016;2022-11-20T22:48:40;0.80;99.90
29713;DHT22;16623;53.632;10.016;2022-11-20T22:51:08;0.90;99.90
29713;DHT22;16623;53.632;10.016;2022-11-20T22:53:34;0.90;99.90
29713;DHT22;16623;53.632;10.016;2022-11-20T22:56:00;0.80;99.90
29713;DHT22;16623;53.632;10.016;2022-11-20T22:58:30;0.80;99.90
29713;DHT22;16623;53.632;10.016;2022-11-20T23:01:08;0.70;99.90
29713;DHT22;16623;53.632;10.016;2022-11-20T23:03:34;0.60;99.90
29713;DHT22;16623;53.632;10.016;2022-11-20T23:06:00;0.70;99.90
29713;DHT22;16623;53.632;10.016;2022-11-20T23:08:26;0.70;99.90
29713;DHT22;16623;53.632;10.016;2022-11-20T23:10:57;0.60;99.90
29713;DHT22;16623;53.632;10.016;2022-11-20T23:13:23;0.60;99.90
29713;DHT22;16623;53.632;10.016;2022-11-20T23:15:48;0.70;99.90
29713;DHT22;16623;53.632;10.016;2022-11-20T23:18:14;0.70;99.90
29713;DHT22;16623;53.632;10.016;2022-11-20T23:20:39;0.70;99.90
29713;DHT22;16623;53.632;10.016;2022-11-20T23:23:05;0.80;99.90
29713;DHT22;16623;53.632;10.016;2022-11-20T23:25:30;0.70;99.90
29713;DHT22;16623;53.632;10.016;2022-11-20T23:27:56;0.70;99.90
29713;DHT22;16623;53.632;10.016;2022-11-20T23:30:21;0.80;99.90
29713;DHT22;16623;53.632;10.016;2022-11-20T23:32:47;0.60;99.90
29713;DHT22;16623;53.632;10.016;2022-11-20T23:35:13;0.70;99.90
29713;DHT22;16623;53.632;10.016;2022-11-20T23:37:38;0.70;99.90
29713;DHT22;16623;53.632;10.016;2022-11-20T23:40:04;0.80;99.90
29713;DHT22;16623;53.632;10.016;2022-11-20T23:42:30;0.70;99.90
29713;DHT22;16623;53.632;10.016;2022-11-20T23:44:55;0.70;99.90
29713;DHT22;16623;53.632;10.016;2022-11-20T23:47:21;0.80;99.90
29713;DHT22;16623;53.632;10.016;2022-11-20T23:49:46;0.90;99.90
29713;DHT22;16623;53.632;10.016;2022-11-20T23:52:12;0.90;99.90
29713;DHT22;16623;53.632;10.016;2022-11-20T23:54:37;0.90;99.90
29713;DHT22;16623;53.632;10.016;2022-11-20T23:57:03;0.80;99.90
29713;DHT22;16623;53.632;10.016;2022-11-20T23:59:28;0.80;99.90
